sensor_id;sensor_type;location;lat;lon;timestamp;temperature;humidity
7648;DHT22;3866;48.020;11.720;2023-07-28T00:01:42;15.50;99.90
7648;DHT22;3866;48.020;11.720;2023-07-28T00:04:10;15.40;99.90
7648;DHT22;3866;48.020;11.720;2023-07-28T00:06:37;15.40;99.90
7648;DHT22;3866;48.020;11.720;2023-07-28T00:09:04;15.30;99.90
7648;DHT22;3866;48.020;11.720;2023-07-28T00:11:31;15.20;99.90
7648;DHT22;3866;48.020;11.720;2023-07-28T00:13:57;14.90;99.90
7648;DHT22;3866;48.020;11.720;2023-07-28T00:16:24;14.50;99.90
7648;DHT22;3866;48.020;11.720;2023-07-28T00:18:51;14.40;99.90
7648;DHT22;3866;48.020;11.720;2023-07-28T00:21:19;14.20;99.90
7648;DHT22;3866;48.020;11.720;2023-07-28T00:23:46;14.10;99.90
7648;DHT22;3866;48.020;11.720;2023-07-28T00:26:13;14.10;99.90
7648;DHT22;3866;48.020;11.720;2023-07-28T00:28:40;14.00;99.90
7648;DHT22;3866;48.020;11.720;2023-07-28T00:31:06;14.00;99.90
7648;DHT22;3866;48.020;11.720;2023-07-28T00:33:33;14.00;99.90
7648;DHT22;3866;48.020;11.720;2023-07-28T00:36:00;14.00;99.90
7648;DHT22;3866;48.020;11.720;2023-07-28T00:38:28;14.00;99.90
7648;DHT22;3866;48.020;11.720;2023-07-28T00:40:55;14.10;99.90
7648;DHT22;3866;48.020;11.720;2023-07-28T00:43:22;14.20;99.90
7648;DHT22;3866;48.020;11.720;2023-07-28T00:45:50;14.20;99.90
7648;DHT22;3866;48.020;11.720;2023-07-28T00:48:17;14.20;99.90
7648;DHT22;3866;48.020;11.720;2023-07-28T00:50:47;14.30;99.90
7648;DHT22;3866;48.020;11.720;2023-07-28T00:53:15;14.40;99.90
7648;DHT22;3866;48.020;11.720;2023-07-28T00:55:43;14.40;99.90
7648;DHT22;3866;48.020;11.720;2023-07-28T00:58:10;14.50;99.90
7648;DHT22;3866;48.020;11.720;2023-07-28T01:00:37;14.50;99.90
7648;DHT22;3866;48.020;11.720;2023-07-28T01:03:04;14.60;99.90
7648;DHT22;3866;48.020;11.720;2023-07-28T01:05:36;14.60;99.90
7648;DHT22;3866;48.020;11.720;2023-07-28T01:08:09;14.60;99.90
7648;DHT22;3866;48.020;11.720;2023-07-28T01:10:38;14.60;99.90
7648;DHT22;3866;48.020;11.720;2023-07-28T01:13:07;14.60;99.90
7648;DHT22;3866;48.020;11.720;2023-07-28T01:15:33;14.70;99.90
7648;DHT22;3866;48.020;11.720;2023-07-28T01:18:00;14.70;99.90
7648;DHT22;3866;48.020;11.720;2023-07-28T01:20:30;14.80;99.90
7648;DHT22;3866;48.020;11.720;2023-07-28T01:23:07;14.80;99.90
7648;DHT22;3866;48.020;11.720;2023-07-28T01:25:43;14.90;99.90
7648;DHT22;3866;48.020;11.720;2023-07-28T01:28:16;14.90;99.90
7648;DHT22;3866;48.020;11.720;2023-07-28T01:30:43;15.00;99.90
7648;DHT22;3866;48.020;11.720;2023-07-28T01:33:11;15.10;99.90
7648;DHT22;3866;48.020;11.720;2023-07-28T01:35:38;15.10;99.90
7648;DHT22;3866;48.020;11.720;2023-07-28T01:38:05;15.10;99.90
7648;DHT22;3866;48.020;11.720;2023-07-28T01:40:32;15.10;99.90
7648;DHT22;3866;48.020;11.720;2023-07-28T01:42:59;15.00;99.90
7648;DHT22;3866;48.020;11.720;2023-07-28T01:45:27;15.00;99.90
7648;DHT22;3866;48.020;11.720;2023-07-28T01:47:54;14.90;99.90
7648;DHT22;3866;48.020;11.720;2023-07-28T01:50:21;14.90;99.90
7648;DHT22;3866;48.020;11.720;2023-07-28T01:52:48;15.00;99.90
7648;DHT22;3866;48.020;11.720;2023-07-28T01:55:15;15.00;99.90
7648;DHT22;3866;48.020;11.720;2023-07-28T01:57:50;15.00;99.90
7648;DHT22;3866;48.020;11.720;2023-07-28T02:00:18;15.00;99.90
7648;DHT22;3866;48.020;11.720;2023-07-28T02:02:46;15.10;99.90
7648;DHT22;3866;48.020;11.720;2023-07-28T02:05:13;15.10;99.90
7648;DHT22;3866;48.020;11.720;2023-07-28T02:07:41;15.00;99.90
7648;DHT22;3866;48.020;11.720;2023-07-28T02:10:08;15.00;99.90
7648;DHT22;3866;48.020;11.720;2023-07-28T02:12:35;15.10;99.90
7648;DHT22;3866;48.020;11.720;2023-07-28T02:15:02;15.10;99.90
7648;DHT22;3866;48.020;11.720;2023-07-28T02:17:29;15.10;99.90
7648;DHT22;3866;48.020;11.720;2023-07-28T02:19:58;15.10;99.90
7648;DHT22;3866;48.020;11.720;2023-07-28T02:22:24;15.10;99.90
7648;DHT22;3866;48.020;11.720;2023-07-28T02:24:51;15.10;99.90
7648;DHT22;3866;48.020;11.720;2023-07-28T02:27:18;15.00;99.90
7648;DHT22;3866;48.020;11.720;2023-07-28T02:29:45;15.00;99.90
7648;DHT22;3866;48.020;11.720;2023-07-28T02:32:13;15.00;99.90
7648;DHT22;3866;48.020;11.720;2023-07-28T02:34:40;15.00;99.90
7648;DHT22;3866;48.020;11.720;2023-07-28T02:37:08;15.00;99.90
7648;DHT22;3866;48.020;11.720;2023-07-28T02:39:35;15.00;99.90
7648;DHT22;3866;48.020;11.720;2023-07-28T02:42:02;14.90;99.90
7648;DHT22;3866;48.020;11.720;2023-07-28T02:44:29;14.90;99.90
7648;DHT22;3866;48.020;11.720;2023-07-28T02:46:55;14.90;99.90
7648;DHT22;3866;48.020;11.720;2023-07-28T02:49:22;14.80;99.90
7648;DHT22;3866;48.020;11.720;2023-07-28T02:51:49;14.90;99.90
7648;DHT22;3866;48.020;11.720;2023-07-28T02:54:17;14.90;99.90
7648;DHT22;3866;48.020;11.720;2023-07-28T02:56:44;14.90;99.90
7648;DHT22;3866;48.020;11.720;2023-07-28T02:59:11;14.90;99.90
7648;DHT22;3866;48.020;11.720;2023-07-28T03:01:38;14.90;99.90
7648;DHT22;3866;48.020;11.720;2023-07-28T03:04:05;14.90;99.90
7648;DHT22;3866;48.020;11.720;2023-07-28T03:06:32;14.80;99.90
7648;DHT22;3866;48.020;11.720;2023-07-28T03:08:59;14.80;99.90
7648;DHT22;3866;48.020;11.720;2023-07-28T03:11:27;14.70;99.90
7648;DHT22;3866;48.020;11.720;2023-07-28T03:13:54;14.70;99.90
7648;DHT22;3866;48.020;11.720;2023-07-28T03:16:20;14.70;99.90
7648;DHT22;3866;48.020;11.720;2023-07-28T03:18:47;14.60;99.90
7648;DHT22;3866;48.020;11.720;2023-07-28T03:21:14;14.50;99.90
7648;DHT22;3866;48.020;11.720;2023-07-28T03:23:41;14.60;99.90
7648;DHT22;3866;48.020;11.720;2023-07-28T03:26:08;14.70;99.90
7648;DHT22;3866;48.020;11.720;2023-07-28T03:28:36;14.90;99.90
7648;DHT22;3866;48.020;11.720;2023-07-28T03:31:03;14.90;99.90
7648;DHT22;3866;48.020;11.720;2023-07-28T03:33:30;14.90;99.90
7648;DHT22;3866;48.020;11.720;2023-07-28T03:35:56;14.80;99.90
7648;DHT22;3866;48.020;11.720;2023-07-28T03:38:23;14.80;99.90
7648;DHT22;3866;48.020;11.720;2023-07-28T03:40:50;14.80;99.90
7648;DHT22;3866;48.020;11.720;2023-07-28T03:43:17;14.70;99.90
7648;DHT22;3866;48.020;11.720;2023-07-28T03:45:45;14.70;99.90
7648;DHT22;3866;48.020;11.720;2023-07-28T03:48:12;14.70;99.90
7648;DHT22;3866;48.020;11.720;2023-07-28T03:50:39;14.70;99.90
7648;DHT22;3866;48.020;11.720;2023-07-28T03:53:06;14.70;99.90
7648;DHT22;3866;48.020;11.720;2023-07-28T03:55:33;14.70;99.90
7648;DHT22;3866;48.020;11.720;2023-07-28T03:58:00;14.80;99.90
7648;DHT22;3866;48.020;11.720;2023-07-28T04:00:26;14.80;99.90
7648;DHT22;3866;48.020;11.720;2023-07-28T04:02:55;14.80;99.90
7648;DHT22;3866;48.020;11.720;2023-07-28T04:05:21;14.90;99.90
7648;DHT22;3866;48.020;11.720;2023-07-28T04:07:48;14.90;99.90
7648;DHT22;3866;48.020;11.720;2023-07-28T04:10:15;14.90;99.90
7648;DHT22;3866;48.020;11.720;2023-07-28T04:12:42;15.00;99.90
7648;DHT22;3866;48.020;11.720;2023-07-28T04:15:09;15.00;99.90
7648;DHT22;3866;48.020;11.720;2023-07-28T04:17:36;15.00;99.90
7648;DHT22;3866;48.020;11.720;2023-07-28T04:20:06;15.00;99.90
7648;DHT22;3866;48.020;11.720;2023-07-28T04:22:33;15.00;99.90
7648;DHT22;3866;48.020;11.720;2023-07-28T04:25:00;14.90;99.90
7648;DHT22;3866;48.020;11.720;2023-07-28T04:27:26;14.80;99.90
7648;DHT22;3866;48.020;11.720;2023-07-28T04:29:53;14.80;99.90
7648;DHT22;3866;48.020;11.720;2023-07-28T04:32:20;14.80;99.90
7648;DHT22;3866;48.020;11.720;2023-07-28T04:34:47;14.80;99.90
7648;DHT22;3866;48.020;11.720;2023-07-28T04:37:15;14.80;99.90
7648;DHT22;3866;48.020;11.720;2023-07-28T04:39:42;14.90;99.90
7648;DHT22;3866;48.020;11.720;2023-07-28T04:42:09;15.00;99.90
7648;DHT22;3866;48.020;11.720;2023-07-28T04:44:37;15.00;99.90
7648;DHT22;3866;48.020;11.720;2023-07-28T04:47:04;15.00;99.90
7648;DHT22;3866;48.020;11.720;2023-07-28T04:49:31;15.00;99.90
7648;DHT22;3866;48.020;11.720;2023-07-28T04:51:57;15.00;99.90
7648;DHT22;3866;48.020;11.720;2023-07-28T04:54:26;15.00;99.90
7648;DHT22;3866;48.020;11.720;2023-07-28T04:56:52;15.00;99.90
7648;DHT22;3866;48.020;11.720;2023-07-28T04:59:19;15.00;99.90
7648;DHT22;3866;48.020;11.720;2023-07-28T05:01:46;15.10;99.90
7648;DHT22;3866;48.020;11.720;2023-07-28T05:04:13;15.10;99.90
7648;DHT22;3866;48.020;11.720;2023-07-28T05:06:40;15.10;99.90
7648;DHT22;3866;48.020;11.720;2023-07-28T05:09:06;15.20;99.90
7648;DHT22;3866;48.020;11.720;2023-07-28T05:11:36;15.00;99.90
7648;DHT22;3866;48.020;11.720;2023-07-28T05:14:02;14.70;99.90
7648;DHT22;3866;48.020;11.720;2023-07-28T05:16:31;14.60;99.90
7648;DHT22;3866;48.020;11.720;2023-07-28T05:18:58;14.50;99.90
7648;DHT22;3866;48.020;11.720;2023-07-28T05:21:25;14.50;99.90
7648;DHT22;3866;48.020;11.720;2023-07-28T05:23:52;14.40;99.90
7648;DHT22;3866;48.020;11.720;2023-07-28T05:26:19;14.30;99.90
7648;DHT22;3866;48.020;11.720;2023-07-28T05:28:47;14.40;99.90
7648;DHT22;3866;48.020;11.720;2023-07-28T05:31:14;14.40;99.90
7648;DHT22;3866;48.020;11.720;2023-07-28T05:33:41;14.30;99.90
7648;DHT22;3866;48.020;11.720;2023-07-28T05:36:07;14.20;99.90
7648;DHT22;3866;48.020;11.720;2023-07-28T05:38:34;14.30;99.90
7648;DHT22;3866;48.020;11.720;2023-07-28T05:41:03;14.30;99.90
7648;DHT22;3866;48.020;11.720;2023-07-28T05:43:30;14.40;99.90
7648;DHT22;3866;48.020;11.720;2023-07-28T05:46:00;14.30;99.90
7648;DHT22;3866;48.020;11.720;2023-07-28T05:48:27;14.30;99.90
7648;DHT22;3866;48.020;11.720;2023-07-28T05:50:54;14.30;99.90
7648;DHT22;3866;48.020;11.720;2023-07-28T05:53:21;14.30;99.90
7648;DHT22;3866;48.020;11.720;2023-07-28T05:55:48;14.50;99.90
7648;DHT22;3866;48.020;11.720;2023-07-28T05:58:15;14.60;99.90
7648;DHT22;3866;48.020;11.720;2023-07-28T06:00:42;14.80;99.90
7648;DHT22;3866;48.020;11.720;2023-07-28T06:03:11;15.00;99.90
7648;DHT22;3866;48.020;11.720;2023-07-28T06:05:38;15.20;99.90
7648;DHT22;3866;48.020;11.720;2023-07-28T06:08:06;15.40;99.90
7648;DHT22;3866;48.020;11.720;2023-07-28T06:10:33;15.50;99.90
7648;DHT22;3866;48.020;11.720;2023-07-28T06:13:00;15.70;99.90
7648;DHT22;3866;48.020;11.720;2023-07-28T06:15:27;15.80;99.90
7648;DHT22;3866;48.020;11.720;2023-07-28T06:17:54;15.90;99.90
7648;DHT22;3866;48.020;11.720;2023-07-28T06:20:23;15.90;99.90
7648;DHT22;3866;48.020;11.720;2023-07-28T06:22:49;15.90;99.90
7648;DHT22;3866;48.020;11.720;2023-07-28T06:25:16;16.10;99.90
7648;DHT22;3866;48.020;11.720;2023-07-28T06:27:43;16.20;99.90
7648;DHT22;3866;48.020;11.720;2023-07-28T06:30:11;16.30;99.90
7648;DHT22;3866;48.020;11.720;2023-07-28T06:32:38;16.50;99.90
7648;DHT22;3866;48.020;11.720;2023-07-28T06:35:05;16.70;99.90
7648;DHT22;3866;48.020;11.720;2023-07-28T06:37:36;16.70;99.90
7648;DHT22;3866;48.020;11.720;2023-07-28T06:40:04;16.80;99.90
7648;DHT22;3866;48.020;11.720;2023-07-28T06:42:33;16.90;99.90
7648;DHT22;3866;48.020;11.720;2023-07-28T06:45:00;16.80;99.90
7648;DHT22;3866;48.020;11.720;2023-07-28T06:47:28;16.80;99.90
7648;DHT22;3866;48.020;11.720;2023-07-28T06:49:55;16.90;99.90
7648;DHT22;3866;48.020;11.720;2023-07-28T06:52:22;17.00;99.90
7648;DHT22;3866;48.020;11.720;2023-07-28T06:54:50;17.40;99.90
7648;DHT22;3866;48.020;11.720;2023-07-28T06:57:18;17.60;99.90
7648;DHT22;3866;48.020;11.720;2023-07-28T06:59:44;17.80;99.90
7648;DHT22;3866;48.020;11.720;2023-07-28T07:02:11;17.80;99.90
7648;DHT22;3866;48.020;11.720;2023-07-28T07:04:38;17.90;99.90
7648;DHT22;3866;48.020;11.720;2023-07-28T07:07:05;18.20;99.90
7648;DHT22;3866;48.020;11.720;2023-07-28T07:09:32;18.50;99.90
7648;DHT22;3866;48.020;11.720;2023-07-28T07:12:01;18.70;99.90
7648;DHT22;3866;48.020;11.720;2023-07-28T07:14:28;18.90;99.90
7648;DHT22;3866;48.020;11.720;2023-07-28T07:16:55;19.10;99.90
7648;DHT22;3866;48.020;11.720;2023-07-28T07:19:22;19.30;99.90
7648;DHT22;3866;48.020;11.720;2023-07-28T07:21:48;19.70;99.90
7648;DHT22;3866;48.020;11.720;2023-07-28T07:24:16;20.00;99.90
7648;DHT22;3866;48.020;11.720;2023-07-28T07:26:43;20.10;99.90
7648;DHT22;3866;48.020;11.720;2023-07-28T07:29:11;20.30;99.90
7648;DHT22;3866;48.020;11.720;2023-07-28T07:31:38;20.50;99.90
7648;DHT22;3866;48.020;11.720;2023-07-28T07:34:06;20.70;99.90
7648;DHT22;3866;48.020;11.720;2023-07-28T07:36:32;21.60;99.90
7648;DHT22;3866;48.020;11.720;2023-07-28T07:38:59;21.50;99.90
7648;DHT22;3866;48.020;11.720;2023-07-28T07:41:28;21.20;99.90
7648;DHT22;3866;48.020;11.720;2023-07-28T07:43:56;21.00;99.90
7648;DHT22;3866;48.020;11.720;2023-07-28T07:46:24;20.70;99.90
7648;DHT22;3866;48.020;11.720;2023-07-28T07:48:51;20.50;99.90
7648;DHT22;3866;48.020;11.720;2023-07-28T07:51:18;20.40;99.90
7648;DHT22;3866;48.020;11.720;2023-07-28T07:53:45;20.40;99.90
7648;DHT22;3866;48.020;11.720;2023-07-28T07:56:12;20.40;99.90
7648;DHT22;3866;48.020;11.720;2023-07-28T07:58:39;20.60;99.90
7648;DHT22;3866;48.020;11.720;2023-07-28T08:01:06;21.40;99.90
7648;DHT22;3866;48.020;11.720;2023-07-28T08:03:34;21.90;99.90
7648;DHT22;3866;48.020;11.720;2023-07-28T08:06:03;22.10;99.90
7648;DHT22;3866;48.020;11.720;2023-07-28T08:08:31;22.50;99.90
7648;DHT22;3866;48.020;11.720;2023-07-28T08:10:58;22.30;99.90
7648;DHT22;3866;48.020;11.720;2023-07-28T08:13:26;21.80;99.90
7648;DHT22;3866;48.020;11.720;2023-07-28T08:15:54;21.90;99.90
7648;DHT22;3866;48.020;11.720;2023-07-28T08:18:21;22.10;99.90
7648;DHT22;3866;48.020;11.720;2023-07-28T08:20:49;22.50;99.90
7648;DHT22;3866;48.020;11.720;2023-07-28T08:23:16;22.90;99.90
7648;DHT22;3866;48.020;11.720;2023-07-28T08:25:43;23.10;99.90
7648;DHT22;3866;48.020;11.720;2023-07-28T08:28:10;23.00;99.90
7648;DHT22;3866;48.020;11.720;2023-07-28T08:30:37;22.60;99.90
7648;DHT22;3866;48.020;11.720;2023-07-28T08:33:04;22.50;99.90
7648;DHT22;3866;48.020;11.720;2023-07-28T08:35:30;23.40;99.90
7648;DHT22;3866;48.020;11.720;2023-07-28T08:37:59;23.50;99.90
7648;DHT22;3866;48.020;11.720;2023-07-28T08:40:26;23.40;99.90
7648;DHT22;3866;48.020;11.720;2023-07-28T08:42:54;23.50;99.90
7648;DHT22;3866;48.020;11.720;2023-07-28T08:45:21;24.20;99.90
7648;DHT22;3866;48.020;11.720;2023-07-28T08:47:49;24.00;99.90
7648;DHT22;3866;48.020;11.720;2023-07-28T08:50:16;23.90;99.90
7648;DHT22;3866;48.020;11.720;2023-07-28T08:52:43;23.80;99.90
7648;DHT22;3866;48.020;11.720;2023-07-28T08:55:11;23.30;99.90
7648;DHT22;3866;48.020;11.720;2023-07-28T08:57:38;23.30;99.90
7648;DHT22;3866;48.020;11.720;2023-07-28T09:00:07;23.30;99.90
7648;DHT22;3866;48.020;11.720;2023-07-28T09:02:35;23.40;99.90
7648;DHT22;3866;48.020;11.720;2023-07-28T09:05:03;23.30;99.90
7648;DHT22;3866;48.020;11.720;2023-07-28T09:07:34;23.20;99.90
7648;DHT22;3866;48.020;11.720;2023-07-28T09:10:02;23.10;99.90
7648;DHT22;3866;48.020;11.720;2023-07-28T09:12:32;23.10;99.90
7648;DHT22;3866;48.020;11.720;2023-07-28T09:14:59;23.20;99.90
7648;DHT22;3866;48.020;11.720;2023-07-28T09:17:26;23.20;99.90
7648;DHT22;3866;48.020;11.720;2023-07-28T09:19:54;23.10;99.90
7648;DHT22;3866;48.020;11.720;2023-07-28T09:22:22;23.40;99.90
7648;DHT22;3866;48.020;11.720;2023-07-28T09:24:50;23.30;99.90
7648;DHT22;3866;48.020;11.720;2023-07-28T09:27:21;23.40;99.90
7648;DHT22;3866;48.020;11.720;2023-07-28T09:29:50;23.30;99.90
7648;DHT22;3866;48.020;11.720;2023-07-28T09:32:26;23.30;99.90
7648;DHT22;3866;48.020;11.720;2023-07-28T09:35:06;23.20;99.90
7648;DHT22;3866;48.020;11.720;2023-07-28T09:37:37;23.20;99.90
7648;DHT22;3866;48.020;11.720;2023-07-28T09:40:07;23.30;99.90
7648;DHT22;3866;48.020;11.720;2023-07-28T09:42:37;23.10;99.90
7648;DHT22;3866;48.020;11.720;2023-07-28T09:45:06;23.30;99.90
7648;DHT22;3866;48.020;11.720;2023-07-28T09:47:35;23.20;99.90
7648;DHT22;3866;48.020;11.720;2023-07-28T09:50:04;23.10;99.90
7648;DHT22;3866;48.020;11.720;2023-07-28T09:52:34;22.90;99.90
7648;DHT22;3866;48.020;11.720;2023-07-28T09:55:05;22.80;99.90
7648;DHT22;3866;48.020;11.720;2023-07-28T09:57:38;22.70;99.90
7648;DHT22;3866;48.020;11.720;2023-07-28T10:00:08;22.60;99.90
7648;DHT22;3866;48.020;11.720;2023-07-28T10:02:37;22.50;99.90
7648;DHT22;3866;48.020;11.720;2023-07-28T10:05:05;22.50;99.90
7648;DHT22;3866;48.020;11.720;2023-07-28T10:07:34;22.50;99.90
7648;DHT22;3866;48.020;11.720;2023-07-28T10:10:13;22.60;99.90
7648;DHT22;3866;48.020;11.720;2023-07-28T10:12:41;22.60;99.90
7648;DHT22;3866;48.020;11.720;2023-07-28T10:15:13;22.60;99.90
7648;DHT22;3866;48.020;11.720;2023-07-28T10:17:43;22.70;99.90
7648;DHT22;3866;48.020;11.720;2023-07-28T10:20:29;22.70;99.90
7648;DHT22;3866;48.020;11.720;2023-07-28T10:23:03;22.60;99.90
7648;DHT22;3866;48.020;11.720;2023-07-28T10:25:33;22.70;99.90
7648;DHT22;3866;48.020;11.720;2023-07-28T10:28:01;22.70;99.90
7648;DHT22;3866;48.020;11.720;2023-07-28T10:30:37;22.70;99.90
7648;DHT22;3866;48.020;11.720;2023-07-28T10:33:05;22.70;99.90
7648;DHT22;3866;48.020;11.720;2023-07-28T10:35:32;22.70;99.90
7648;DHT22;3866;48.020;11.720;2023-07-28T10:38:33;22.60;99.90
7648;DHT22;3866;48.020;11.720;2023-07-28T10:41:12;22.60;99.90
7648;DHT22;3866;48.020;11.720;2023-07-28T10:43:40;22.50;99.90
7648;DHT22;3866;48.020;11.720;2023-07-28T10:46:09;22.50;99.90
7648;DHT22;3866;48.020;11.720;2023-07-28T10:48:37;22.60;99.90
7648;DHT22;3866;48.020;11.720;2023-07-28T10:51:07;22.60;99.90
7648;DHT22;3866;48.020;11.720;2023-07-28T10:53:34;22.50;99.90
7648;DHT22;3866;48.020;11.720;2023-07-28T10:56:02;22.40;99.90
7648;DHT22;3866;48.020;11.720;2023-07-28T10:58:31;22.40;99.90
7648;DHT22;3866;48.020;11.720;2023-07-28T11:00:59;22.40;99.90
7648;DHT22;3866;48.020;11.720;2023-07-28T11:03:28;22.60;99.90
7648;DHT22;3866;48.020;11.720;2023-07-28T11:05:55;22.60;99.90
7648;DHT22;3866;48.020;11.720;2023-07-28T11:08:23;22.50;99.90
7648;DHT22;3866;48.020;11.720;2023-07-28T11:10:50;22.50;99.90
7648;DHT22;3866;48.020;11.720;2023-07-28T11:13:17;22.60;99.90
7648;DHT22;3866;48.020;11.720;2023-07-28T11:15:44;22.60;99.90
7648;DHT22;3866;48.020;11.720;2023-07-28T11:18:11;22.60;99.90
7648;DHT22;3866;48.020;11.720;2023-07-28T11:20:42;22.60;99.90
7648;DHT22;3866;48.020;11.720;2023-07-28T11:23:14;22.50;99.90
7648;DHT22;3866;48.020;11.720;2023-07-28T11:25:43;22.50;99.90
7648;DHT22;3866;48.020;11.720;2023-07-28T11:28:10;22.50;99.90
7648;DHT22;3866;48.020;11.720;2023-07-28T11:30:38;22.40;99.90
7648;DHT22;3866;48.020;11.720;2023-07-28T11:33:08;22.40;99.90
7648;DHT22;3866;48.020;11.720;2023-07-28T11:35:37;22.50;99.90
7648;DHT22;3866;48.020;11.720;2023-07-28T11:38:05;22.60;99.90
7648;DHT22;3866;48.020;11.720;2023-07-28T11:40:33;22.80;99.90
7648;DHT22;3866;48.020;11.720;2023-07-28T11:43:01;22.90;99.90
7648;DHT22;3866;48.020;11.720;2023-07-28T11:45:29;23.00;99.90
7648;DHT22;3866;48.020;11.720;2023-07-28T11:47:57;23.30;99.90
7648;DHT22;3866;48.020;11.720;2023-07-28T11:50:25;23.40;99.90
7648;DHT22;3866;48.020;11.720;2023-07-28T11:52:53;23.40;99.90
7648;DHT22;3866;48.020;11.720;2023-07-28T11:55:22;23.40;99.90
7648;DHT22;3866;48.020;11.720;2023-07-28T11:57:49;23.60;99.90
7648;DHT22;3866;48.020;11.720;2023-07-28T12:00:17;24.30;99.90
7648;DHT22;3866;48.020;11.720;2023-07-28T12:02:46;24.50;99.90
7648;DHT22;3866;48.020;11.720;2023-07-28T12:05:14;25.20;99.90
7648;DHT22;3866;48.020;11.720;2023-07-28T12:07:46;25.50;99.90
7648;DHT22;3866;48.020;11.720;2023-07-28T12:10:13;25.70;99.90
7648;DHT22;3866;48.020;11.720;2023-07-28T12:12:43;25.90;99.90
7648;DHT22;3866;48.020;11.720;2023-07-28T12:15:25;25.30;99.90
7648;DHT22;3866;48.020;11.720;2023-07-28T12:18:08;25.00;99.90
7648;DHT22;3866;48.020;11.720;2023-07-28T12:20:37;25.00;99.90
7648;DHT22;3866;48.020;11.720;2023-07-28T12:23:04;25.10;99.90
7648;DHT22;3866;48.020;11.720;2023-07-28T12:25:31;24.90;99.90
7648;DHT22;3866;48.020;11.720;2023-07-28T12:28:00;25.10;99.90
7648;DHT22;3866;48.020;11.720;2023-07-28T12:30:27;25.10;99.90
7648;DHT22;3866;48.020;11.720;2023-07-28T12:32:54;25.10;99.90
7648;DHT22;3866;48.020;11.720;2023-07-28T12:35:22;25.00;99.90
7648;DHT22;3866;48.020;11.720;2023-07-28T12:37:50;24.80;99.90
7648;DHT22;3866;48.020;11.720;2023-07-28T12:40:17;24.60;99.90
7648;DHT22;3866;48.020;11.720;2023-07-28T12:42:45;24.60;99.90
7648;DHT22;3866;48.020;11.720;2023-07-28T12:45:14;25.00;99.90
7648;DHT22;3866;48.020;11.720;2023-07-28T12:47:42;25.10;99.90
7648;DHT22;3866;48.020;11.720;2023-07-28T12:50:10;24.80;99.90
7648;DHT22;3866;48.020;11.720;2023-07-28T12:52:37;24.90;99.90
7648;DHT22;3866;48.020;11.720;2023-07-28T12:55:04;24.90;99.90
7648;DHT22;3866;48.020;11.720;2023-07-28T12:57:31;25.00;99.90
7648;DHT22;3866;48.020;11.720;2023-07-28T12:59:58;24.90;99.90
7648;DHT22;3866;48.020;11.720;2023-07-28T13:02:26;24.80;99.90
7648;DHT22;3866;48.020;11.720;2023-07-28T13:04:53;24.70;99.90
7648;DHT22;3866;48.020;11.720;2023-07-28T13:07:20;24.70;99.90
7648;DHT22;3866;48.020;11.720;2023-07-28T13:09:48;24.70;99.90
7648;DHT22;3866;48.020;11.720;2023-07-28T13:12:14;24.80;99.90
7648;DHT22;3866;48.020;11.720;2023-07-28T13:14:41;24.70;99.90
7648;DHT22;3866;48.020;11.720;2023-07-28T13:17:08;24.70;99.90
7648;DHT22;3866;48.020;11.720;2023-07-28T13:19:38;24.70;99.90
7648;DHT22;3866;48.020;11.720;2023-07-28T13:22:05;24.80;99.90
7648;DHT22;3866;48.020;11.720;2023-07-28T13:24:32;24.90;99.90
7648;DHT22;3866;48.020;11.720;2023-07-28T13:26:59;24.60;99.90
7648;DHT22;3866;48.020;11.720;2023-07-28T13:29:26;24.60;99.90
7648;DHT22;3866;48.020;11.720;2023-07-28T13:31:57;24.50;99.90
7648;DHT22;3866;48.020;11.720;2023-07-28T13:34:24;24.50;99.90
7648;DHT22;3866;48.020;11.720;2023-07-28T13:36:52;24.40;99.90
7648;DHT22;3866;48.020;11.720;2023-07-28T13:39:19;24.30;99.90
7648;DHT22;3866;48.020;11.720;2023-07-28T13:41:45;24.20;99.90
7648;DHT22;3866;48.020;11.720;2023-07-28T13:44:12;24.20;99.90
7648;DHT22;3866;48.020;11.720;2023-07-28T13:46:39;24.20;99.90
7648;DHT22;3866;48.020;11.720;2023-07-28T13:49:06;24.20;99.90
7648;DHT22;3866;48.020;11.720;2023-07-28T13:51:33;24.30;99.90
7648;DHT22;3866;48.020;11.720;2023-07-28T13:54:01;24.20;99.90
7648;DHT22;3866;48.020;11.720;2023-07-28T13:56:28;24.10;99.90
7648;DHT22;3866;48.020;11.720;2023-07-28T13:58:55;23.90;99.90
7648;DHT22;3866;48.020;11.720;2023-07-28T14:01:21;23.90;99.90
7648;DHT22;3866;48.020;11.720;2023-07-28T14:03:48;23.90;99.90
7648;DHT22;3866;48.020;11.720;2023-07-28T14:06:15;23.70;99.90
7648;DHT22;3866;48.020;11.720;2023-07-28T14:08:42;23.60;99.90
7648;DHT22;3866;48.020;11.720;2023-07-28T14:11:11;23.60;99.90
7648;DHT22;3866;48.020;11.720;2023-07-28T14:13:39;23.40;99.90
7648;DHT22;3866;48.020;11.720;2023-07-28T14:16:06;23.30;99.90
7648;DHT22;3866;48.020;11.720;2023-07-28T14:18:35;22.70;99.90
7648;DHT22;3866;48.020;11.720;2023-07-28T14:21:02;22.10;99.90
7648;DHT22;3866;48.020;11.720;2023-07-28T14:23:29;21.20;99.90
7648;DHT22;3866;48.020;11.720;2023-07-28T14:25:55;20.50;99.90
7648;DHT22;3866;48.020;11.720;2023-07-28T14:28:24;20.20;99.90
7648;DHT22;3866;48.020;11.720;2023-07-28T14:30:51;19.90;99.90
7648;DHT22;3866;48.020;11.720;2023-07-28T14:33:18;19.80;99.90
7648;DHT22;3866;48.020;11.720;2023-07-28T14:35:46;19.70;99.90
7648;DHT22;3866;48.020;11.720;2023-07-28T14:38:14;19.70;99.90
7648;DHT22;3866;48.020;11.720;2023-07-28T14:40:41;19.70;99.90
7648;DHT22;3866;48.020;11.720;2023-07-28T14:43:12;19.70;99.90
7648;DHT22;3866;48.020;11.720;2023-07-28T14:45:40;20.10;99.90
7648;DHT22;3866;48.020;11.720;2023-07-28T14:48:07;20.30;99.90
7648;DHT22;3866;48.020;11.720;2023-07-28T14:50:34;20.50;99.90
7648;DHT22;3866;48.020;11.720;2023-07-28T14:53:01;20.80;99.90
7648;DHT22;3866;48.020;11.720;2023-07-28T14:55:27;21.00;99.90
7648;DHT22;3866;48.020;11.720;2023-07-28T14:57:54;21.20;99.90
7648;DHT22;3866;48.020;11.720;2023-07-28T15:00:21;21.20;99.90
7648;DHT22;3866;48.020;11.720;2023-07-28T15:02:49;21.20;99.90
7648;DHT22;3866;48.020;11.720;2023-07-28T15:05:16;21.30;99.90
7648;DHT22;3866;48.020;11.720;2023-07-28T15:07:43;21.30;99.90
7648;DHT22;3866;48.020;11.720;2023-07-28T15:10:10;21.40;99.90
7648;DHT22;3866;48.020;11.720;2023-07-28T15:12:37;21.60;99.90
7648;DHT22;3866;48.020;11.720;2023-07-28T15:15:05;21.80;99.90
7648;DHT22;3866;48.020;11.720;2023-07-28T15:17:32;22.00;99.90
7648;DHT22;3866;48.020;11.720;2023-07-28T15:20:00;22.20;99.90
7648;DHT22;3866;48.020;11.720;2023-07-28T15:22:27;22.40;99.90
7648;DHT22;3866;48.020;11.720;2023-07-28T15:24:53;22.60;99.90
7648;DHT22;3866;48.020;11.720;2023-07-28T15:27:20;22.80;99.90
7648;DHT22;3866;48.020;11.720;2023-07-28T15:29:47;22.90;99.90
7648;DHT22;3866;48.020;11.720;2023-07-28T15:32:14;23.00;99.90
7648;DHT22;3866;48.020;11.720;2023-07-28T15:34:41;23.20;99.90
7648;DHT22;3866;48.020;11.720;2023-07-28T15:37:09;23.50;99.90
7648;DHT22;3866;48.020;11.720;2023-07-28T15:39:36;23.70;99.90
7648;DHT22;3866;48.020;11.720;2023-07-28T15:42:03;23.80;99.90
7648;DHT22;3866;48.020;11.720;2023-07-28T15:44:30;23.80;99.90
7648;DHT22;3866;48.020;11.720;2023-07-28T15:46:57;23.90;99.90
7648;DHT22;3866;48.020;11.720;2023-07-28T15:49:23;24.00;99.90